Search for airport 
image banner adimage banner adimage banner ad
image banner ad

M90 - William Robert Johnston Muni

Located in Mendota, United States

ICAO - M90, IATA -

Data provided by Airmate  

General information

Coordinates: N36°45'31" W120°22'17"
Elevation is 162 feet MSL.
Magnetic variation is 15° East
View others Airports in California

Operational data

Special qualification required
Current time UTC:
Current local time:
Weather at : KMAE - Madera Muni ( 34 km )
METAR: KMAE 221253Z AUTO 26004KT 10SM CLR 14/12 A2989 RMK AO2 SLP119 T01440122
View NOTAMs / SUP AIP / TFR affecting this airport [VIEW]
Communications frequencies: [VIEW]

Runways:

RWY identifierQFULength (ft)Width (ft)SurfaceLDA (ft)
15349950ASPH
33349950ASPH

Airport contact information

Address: Mendota United States

Satellite view of M90